createdAt,value
2023-02-16T00:02:37.161Z,24.33
2023-02-16T00:08:17.679Z,22.00
2023-02-16T00:11:22.153Z,23.50
2023-02-16T00:14:16.179Z,23.33
2023-02-16T00:17:12.145Z,23.80
2023-02-16T00:19:59.153Z,23.23
2023-02-16T00:25:26.173Z,23.33
2023-02-16T00:30:56.214Z,23.73
2023-02-16T00:33:36.227Z,23.67
2023-02-16T00:36:23.133Z,23.13
2023-02-16T00:39:03.217Z,24.90
2023-02-16T00:42:00.172Z,24.55
2023-02-16T00:44:45.218Z,24.60
2023-02-16T00:47:44.166Z,25.17
2023-02-16T00:50:42.145Z,23.55
2023-02-16T00:53:31.161Z,24.88
2023-02-16T00:56:11.227Z,25.33
2023-02-16T00:59:00.178Z,24.23
2023-02-16T01:01:44.313Z,25.33
2023-02-16T01:04:31.195Z,26.05
2023-02-16T01:10:44.151Z,24.65
2023-02-16T01:13:24.250Z,25.40
2023-02-16T01:16:11.230Z,24.95
2023-02-16T01:21:38.153Z,24.15
2023-02-16T01:24:18.672Z,24.63
2023-02-16T01:27:05.177Z,24.13
2023-02-16T01:32:32.165Z,24.27
2023-02-16T01:35:20.236Z,25.48
2023-02-16T01:38:00.170Z,25.58
2023-02-16T01:40:46.425Z,24.73
2023-02-16T01:43:42.170Z,25.25
2023-02-16T01:47:13.155Z,23.13
2023-02-16T01:50:02.850Z,24.92
2023-02-16T01:52:56.151Z,25.67
2023-02-16T01:55:44.158Z,25.40
2023-02-16T01:58:50.618Z,26.13
2023-02-16T02:02:00.257Z,25.83
2023-02-16T02:05:09.578Z,25.60
2023-02-16T02:08:24.141Z,25.50
2023-02-16T02:11:39.174Z,24.90
2023-02-16T02:14:35.154Z,24.48
2023-02-16T02:17:33.156Z,23.42
2023-02-16T02:21:07.150Z,24.98
2023-02-16T02:24:23.170Z,24.85
2023-02-16T02:27:13.172Z,24.70
2023-02-16T02:30:42.174Z,25.60
2023-02-16T02:34:11.163Z,24.48
2023-02-16T02:37:07.293Z,23.58
2023-02-16T02:40:00.170Z,24.35
2023-02-16T02:42:58.221Z,24.48
2023-02-16T02:45:52.186Z,24.75
2023-02-16T02:48:40.235Z,25.92
2023-02-16T02:51:36.168Z,24.45
2023-02-16T02:55:00.170Z,25.83
2023-02-16T03:00:56.178Z,25.10
2023-02-16T03:03:53.161Z,25.42
2023-02-16T03:06:37.247Z,22.77
2023-02-16T03:09:25.181Z,24.20
2023-02-16T03:12:33.169Z,23.25
2023-02-16T03:15:14.290Z,24.85
2023-02-16T03:18:20.174Z,24.85
2023-02-16T03:21:27.184Z,22.55
2023-02-16T03:24:27.986Z,23.75
2023-02-16T03:27:34.179Z,24.85
2023-02-16T03:30:16.340Z,24.45
2023-02-16T03:33:03.161Z,24.20
2023-02-16T03:35:43.221Z,24.20
2023-02-16T03:38:30.159Z,24.38
2023-02-16T03:43:57.154Z,23.38
2023-02-16T03:49:24.654Z,24.73
2023-02-16T03:52:04.168Z,24.58
2023-02-16T03:54:44.178Z,24.40
2023-02-16T03:57:31.167Z,25.13
2023-02-16T04:02:58.175Z,22.60
2023-02-16T04:05:39.324Z,23.73
2023-02-16T04:08:26.178Z,24.40
2023-02-16T04:14:11.168Z,22.85
2023-02-16T04:16:58.156Z,23.42
2023-02-16T04:22:25.166Z,24.30
2023-02-16T04:25:12.272Z,25.15
2023-02-16T04:27:53.193Z,24.88
2023-02-16T04:30:40.295Z,24.70
2023-02-16T04:33:20.225Z,24.48
2023-02-16T04:36:07.154Z,25.05
2023-02-16T04:41:34.158Z,24.15
2023-02-16T04:44:21.152Z,24.55
2023-02-16T04:47:08.165Z,24.40
2023-02-16T04:52:37.181Z,23.30
2023-02-16T04:58:04.144Z,23.55
2023-02-16T05:00:44.223Z,25.08
2023-02-16T05:03:31.157Z,25.77
2023-02-16T05:08:58.154Z,24.23
2023-02-16T05:14:49.162Z,24.42
2023-02-16T05:17:32.216Z,26.40
2023-02-16T05:20:19.188Z,24.40
2023-02-16T05:22:59.224Z,25.35
2023-02-16T05:25:46.178Z,25.25
2023-02-16T05:31:13.287Z,24.88
2023-02-16T05:36:40.153Z,24.33
2023-02-16T05:42:14.218Z,24.80
2023-02-16T05:44:55.177Z,24.55
2023-02-16T05:47:42.228Z,25.90
2023-02-16T05:53:12.229Z,25.40
2023-02-16T05:55:52.162Z,26.13
2023-02-16T05:58:32.876Z,25.85
2023-02-16T06:01:19.169Z,26.27
2023-02-16T06:06:53.174Z,24.83
2023-02-16T06:12:27.189Z,25.58
2023-02-16T06:17:54.188Z,24.55
2023-02-16T06:23:23.182Z,25.30
2023-02-16T06:26:10.181Z,27.55
2023-02-16T06:31:37.312Z,25.15
2023-02-16T06:37:11.194Z,25.73
2023-02-16T06:42:38.169Z,27.38
2023-02-16T06:48:05.172Z,26.05
2023-02-16T06:53:32.176Z,25.20
2023-02-16T06:58:59.177Z,25.63
2023-02-16T07:04:26.195Z,26.20
2023-02-16T07:09:53.181Z,26.08
2023-02-16T07:15:27.288Z,26.30
2023-02-16T07:20:54.248Z,25.60
2023-02-16T07:26:14.748Z,24.55
2023-02-16T07:29:01.189Z,25.90
2023-02-16T07:34:28.182Z,25.02
2023-02-16T07:39:55.150Z,26.38
2023-02-16T07:42:35.908Z,25.35
2023-02-16T07:48:20.217Z,26.42
2023-02-16T07:51:08.346Z,27.25
2023-02-16T07:53:48.219Z,26.40
2023-02-16T07:56:37.169Z,27.73
2023-02-16T07:59:17.381Z,27.30
2023-02-16T08:02:04.306Z,26.40
2023-02-16T08:07:31.175Z,26.55
2023-02-16T08:12:58.175Z,25.92
2023-02-16T08:18:32.168Z,25.95
2023-02-16T08:21:15.204Z,26.88
2023-02-16T08:24:17.186Z,26.63
2023-02-16T08:27:04.340Z,26.75
2023-02-16T08:32:25.429Z,27.00
2023-02-16T08:35:12.182Z,26.13
2023-02-16T08:40:39.181Z,26.00
2023-02-16T08:46:07.433Z,25.92
2023-02-16T08:48:55.855Z,25.08
2023-02-16T08:51:38.509Z,24.85
2023-02-16T08:54:23.177Z,25.83
2023-02-16T08:57:10.182Z,26.15
2023-02-16T09:03:06.955Z,25.42
2023-02-16T09:05:47.159Z,26.17
2023-02-16T09:08:35.165Z,25.85
2023-02-16T09:11:26.174Z,26.77
2023-02-16T09:14:06.882Z,26.23
2023-02-16T09:16:55.220Z,26.00
2023-02-16T09:19:43.485Z,26.33
2023-02-16T09:22:23.188Z,25.48
2023-02-16T09:25:04.085Z,25.52
2023-02-16T09:27:51.176Z,26.05
2023-02-16T09:33:18.317Z,24.23
2023-02-16T09:36:05.532Z,26.20
2023-02-16T09:38:55.194Z,26.13
2023-02-16T09:42:06.181Z,27.05
2023-02-16T09:44:53.025Z,25.42
2023-02-16T09:50:52.219Z,26.83
2023-02-16T09:53:44.195Z,26.52
2023-02-16T09:56:38.229Z,25.35
2023-02-16T09:59:45.180Z,26.58
2023-02-16T10:02:31.257Z,26.15
2023-02-16T10:05:30.190Z,24.88
2023-02-16T10:08:17.291Z,27.02
2023-02-16T10:14:38.175Z,24.60
2023-02-16T10:17:45.189Z,25.02
2023-02-16T10:20:50.185Z,24.63
2023-02-16T10:23:52.245Z,27.13
2023-02-16T10:26:40.187Z,26.33
2023-02-16T10:29:35.181Z,26.98
2023-02-16T10:32:39.461Z,26.77
2023-02-16T10:35:34.171Z,26.55
2023-02-16T10:38:39.239Z,25.85
2023-02-16T10:41:44.194Z,25.75
2023-02-16T10:44:41.152Z,25.80
2023-02-16T10:47:53.187Z,26.08
2023-02-16T10:50:44.304Z,27.00
2023-02-16T10:53:44.185Z,25.85
2023-02-16T10:57:06.188Z,26.02
2023-02-16T10:59:51.302Z,27.08
2023-02-16T11:03:08.178Z,26.45
2023-02-16T11:05:49.017Z,26.92
2023-02-16T11:08:58.181Z,26.40
2023-02-16T11:11:47.691Z,26.17
2023-02-16T11:14:37.184Z,26.50
2023-02-16T11:17:21.286Z,25.50
2023-02-16T11:20:13.191Z,26.58
2023-02-16T11:22:53.254Z,26.55
2023-02-16T11:25:40.200Z,25.55
2023-02-16T11:31:22.557Z,25.05
2023-02-16T11:34:21.191Z,24.48
2023-02-16T11:37:32.197Z,26.02
2023-02-16T11:40:38.186Z,26.92
2023-02-16T11:43:19.181Z,25.70
2023-02-16T11:46:30.210Z,26.30
2023-02-16T11:49:46.189Z,24.90
2023-02-16T11:52:39.175Z,25.42
2023-02-16T11:55:41.205Z,25.25
2023-02-16T11:58:22.531Z,24.92
2023-02-16T12:01:31.199Z,25.17
2023-02-16T12:04:49.394Z,25.42
2023-02-16T12:07:55.174Z,25.42
2023-02-16T12:10:44.180Z,25.80
2023-02-16T12:14:00.175Z,25.00
2023-02-16T12:17:03.249Z,25.20
2023-02-16T12:19:54.178Z,25.35
2023-02-16T12:22:53.743Z,24.33
2023-02-16T12:25:45.194Z,24.30
2023-02-16T12:28:56.258Z,25.40
2023-02-16T12:32:07.246Z,26.70
2023-02-16T12:35:16.209Z,25.83
2023-02-16T12:38:28.671Z,26.75
2023-02-16T12:41:39.207Z,25.13
2023-02-16T12:44:32.348Z,26.42
2023-02-16T12:50:42.198Z,24.77
2023-02-16T12:53:41.179Z,24.65
2023-02-16T12:56:35.256Z,25.20
2023-02-16T12:59:46.178Z,25.25
2023-02-16T13:02:33.326Z,24.65
2023-02-16T13:05:25.182Z,23.13
2023-02-16T13:08:24.950Z,24.73
2023-02-16T13:14:31.200Z,23.42
2023-02-16T13:17:28.243Z,23.77
2023-02-16T13:20:23.200Z,24.85
2023-02-16T13:23:18.246Z,24.60
2023-02-16T13:26:46.255Z,24.67
2023-02-16T13:30:02.279Z,22.17
2023-02-16T13:33:09.363Z,21.92
2023-02-16T13:36:17.197Z,22.60
2023-02-16T13:39:24.655Z,21.58
2023-02-16T13:42:40.197Z,21.75
2023-02-16T13:45:41.207Z,22.33
2023-02-16T13:48:33.365Z,22.02
2023-02-16T13:51:30.186Z,21.17
2023-02-16T13:54:11.261Z,20.95
2023-02-16T13:56:58.185Z,20.05
2023-02-16T13:59:41.301Z,19.73
2023-02-16T14:03:01.199Z,18.30
2023-02-16T14:05:47.873Z,18.80
2023-02-16T14:08:36.196Z,17.77
2023-02-16T14:11:25.195Z,16.38
2023-02-16T14:14:46.213Z,18.10
2023-02-16T14:17:45.201Z,17.50
2023-02-16T14:20:35.328Z,16.55
2023-02-16T14:23:35.215Z,17.17
2023-02-16T14:26:16.010Z,16.98
2023-02-16T14:29:33.186Z,16.77
2023-02-16T14:32:29.221Z,16.08
2023-02-16T14:35:20.564Z,16.65
2023-02-16T14:38:31.220Z,15.80
2023-02-16T14:41:15.790Z,16.45
2023-02-16T14:44:11.193Z,15.93
2023-02-16T14:47:09.263Z,16.45
2023-02-16T14:50:33.178Z,16.13
2023-02-16T14:53:40.205Z,16.92
2023-02-16T14:56:34.033Z,15.32
2023-02-16T15:02:47.257Z,13.40
2023-02-16T15:05:39.206Z,12.80
2023-02-16T15:08:29.203Z,12.48
2023-02-16T15:11:29.212Z,13.13
2023-02-16T15:14:11.548Z,13.60
2023-02-16T15:17:00.190Z,13.35
2023-02-16T15:19:54.206Z,13.10
2023-02-16T15:22:45.304Z,11.65
2023-02-16T15:25:33.881Z,12.23
2023-02-16T15:28:29.197Z,12.05
2023-02-16T15:31:24.104Z,12.10
2023-02-16T15:34:14.209Z,11.98
2023-02-16T15:37:01.213Z,12.27
2023-02-16T15:39:56.026Z,12.55
2023-02-16T15:42:51.195Z,12.13
2023-02-16T15:45:35.385Z,13.10
2023-02-16T15:48:39.214Z,12.93
2023-02-16T15:51:31.510Z,13.13
2023-02-16T15:54:39.183Z,12.45
2023-02-16T15:57:34.213Z,12.18
2023-02-16T16:00:26.202Z,12.98
2023-02-16T16:03:15.213Z,13.43
2023-02-16T16:06:00.245Z,13.35
2023-02-16T16:08:47.218Z,12.77
2023-02-16T16:11:35.286Z,13.13
2023-02-16T16:14:17.209Z,12.77
2023-02-16T16:16:57.990Z,13.98
2023-02-16T16:19:49.214Z,13.77
2023-02-16T16:22:37.168Z,13.52
2023-02-16T16:25:45.207Z,13.85
2023-02-16T16:28:28.815Z,14.02
2023-02-16T16:31:25.321Z,13.70
2023-02-16T16:34:18.202Z,13.60
2023-02-16T16:37:10.221Z,12.45
2023-02-16T16:40:07.453Z,12.45
2023-02-16T16:43:18.243Z,13.13
2023-02-16T16:46:17.197Z,13.48
2023-02-16T16:49:10.214Z,13.90
2023-02-16T16:54:48.231Z,12.95
2023-02-16T16:57:30.297Z,13.13
2023-02-16T17:00:18.211Z,14.30
2023-02-16T17:03:05.207Z,14.85
2023-02-16T17:05:45.275Z,11.10
2023-02-16T17:08:32.234Z,10.45
2023-02-16T17:11:19.214Z,10.88
2023-02-16T17:14:30.286Z,10.77
2023-02-16T17:17:12.221Z,10.65
2023-02-16T17:19:59.262Z,10.27
2023-02-16T17:22:39.213Z,10.38
2023-02-16T17:25:20.173Z,9.80
2023-02-16T17:28:07.209Z,11.82
2023-02-16T17:30:47.817Z,10.43
2023-02-16T17:33:34.214Z,12.30
2023-02-16T17:36:16.074Z,10.48
2023-02-16T17:39:03.220Z,11.20
2023-02-16T17:41:50.218Z,10.77
2023-02-16T17:44:37.205Z,11.00
2023-02-16T17:47:17.802Z,11.13
2023-02-16T17:50:04.214Z,10.90
2023-02-16T17:52:44.943Z,11.70
2023-02-16T17:55:31.223Z,12.02
2023-02-16T17:58:19.309Z,12.18
2023-02-16T18:01:00.244Z,11.68
2023-02-16T18:03:47.221Z,12.02
2023-02-16T18:06:30.616Z,11.75
2023-02-16T18:09:22.216Z,13.32
2023-02-16T18:12:02.316Z,12.18
2023-02-16T18:14:49.223Z,12.35
2023-02-16T18:17:36.204Z,12.77
2023-02-16T18:20:24.279Z,12.80
2023-02-16T18:23:04.756Z,13.52
2023-02-16T18:25:52.246Z,12.43
2023-02-16T18:28:36.384Z,13.02
2023-02-16T18:31:23.270Z,12.43
2023-02-16T18:34:04.332Z,12.75
2023-02-16T18:36:51.352Z,13.50
2023-02-16T18:39:31.470Z,12.93
2023-02-16T18:42:18.225Z,12.77
2023-02-16T18:44:58.324Z,11.98
2023-02-16T18:47:45.254Z,12.57
2023-02-16T18:50:32.216Z,12.63
2023-02-16T18:53:19.231Z,12.85
2023-02-16T18:55:59.303Z,12.38
2023-02-16T18:58:46.238Z,12.52
2023-02-16T19:01:38.397Z,12.35
2023-02-16T19:04:25.288Z,11.50
2023-02-16T19:07:05.301Z,11.75
2023-02-16T19:09:52.220Z,11.60
2023-02-16T19:12:32.309Z,11.07
2023-02-16T19:15:19.233Z,11.30
2023-02-16T19:17:59.354Z,11.13
2023-02-16T19:20:46.236Z,10.65
2023-02-16T19:23:26.280Z,10.18
2023-02-16T19:26:15.261Z,11.57
2023-02-16T19:28:55.327Z,10.52
2023-02-16T19:31:42.300Z,11.27
2023-02-16T19:34:22.294Z,10.57
2023-02-16T19:37:09.225Z,10.43
2023-02-16T19:39:49.308Z,10.88
2023-02-16T19:42:36.221Z,10.07
2023-02-16T19:45:16.295Z,9.70
2023-02-16T19:48:03.224Z,9.82
2023-02-16T19:50:43.303Z,9.75
2023-02-16T19:53:30.216Z,9.00
2023-02-16T19:56:23.230Z,8.98
2023-02-16T20:01:50.328Z,8.52
2023-02-16T20:04:30.755Z,9.55
2023-02-16T20:07:17.231Z,8.15
2023-02-16T20:10:04.236Z,8.32
2023-02-16T20:12:51.241Z,8.10
2023-02-16T20:18:18.238Z,7.53
2023-02-16T20:23:50.252Z,7.38
2023-02-16T20:26:42.623Z,7.15
2023-02-16T20:29:29.218Z,7.20
2023-02-16T20:32:09.808Z,7.30
2023-02-16T20:34:57.239Z,6.63
2023-02-16T20:37:37.799Z,6.30
2023-02-16T20:40:27.231Z,6.65
2023-02-16T20:43:07.862Z,6.03
2023-02-16T20:45:54.233Z,5.95
2023-02-16T20:51:21.346Z,6.22
2023-02-16T20:54:09.245Z,5.35
2023-02-16T20:56:56.252Z,5.78
2023-02-16T21:02:25.307Z,5.55
2023-02-16T21:05:13.243Z,5.40
2023-02-16T21:07:54.278Z,5.28
2023-02-16T21:10:41.235Z,4.90
2023-02-16T21:13:28.239Z,4.60
2023-02-16T21:18:57.236Z,4.45
2023-02-16T21:21:44.319Z,4.22
2023-02-16T21:24:24.237Z,4.40
2023-02-16T21:27:04.714Z,4.07
2023-02-16T21:29:52.249Z,4.20
2023-02-16T21:32:32.942Z,3.80
2023-02-16T21:35:19.245Z,4.07
2023-02-16T21:38:06.232Z,3.67
2023-02-16T21:44:06.261Z,4.07
2023-02-16T21:46:49.288Z,3.97
2023-02-16T21:49:36.239Z,3.80
2023-02-16T21:52:16.329Z,3.50
2023-02-16T21:55:22.273Z,3.35
2023-02-16T21:58:07.907Z,3.83
2023-02-16T22:00:58.296Z,3.53
2023-02-16T22:03:38.293Z,3.70
2023-02-16T22:06:25.232Z,3.38
2023-02-16T22:11:54.234Z,3.33
2023-02-16T22:14:34.343Z,3.55
2023-02-16T22:17:21.247Z,3.55
2023-02-16T22:22:48.391Z,4.68
2023-02-16T22:28:16.234Z,4.43
2023-02-16T22:30:56.324Z,4.50
2023-02-16T22:33:43.256Z,4.57
2023-02-16T22:39:11.240Z,4.60
2023-02-16T22:41:51.381Z,4.68
2023-02-16T22:44:38.243Z,4.90
2023-02-16T22:50:05.237Z,4.57
2023-02-16T22:55:32.254Z,4.63
2023-02-16T23:00:59.276Z,4.65
2023-02-16T23:06:29.282Z,5.30
2023-02-16T23:09:12.318Z,5.05
2023-02-16T23:11:59.268Z,5.20
2023-02-16T23:17:36.248Z,5.22
2023-02-16T23:23:17.245Z,5.68
2023-02-16T23:28:47.250Z,5.20
2023-02-16T23:31:35.287Z,5.38
2023-02-16T23:34:23.263Z,6.35
2023-02-16T23:37:03.303Z,5.28
2023-02-16T23:39:50.266Z,5.53
2023-02-16T23:45:17.258Z,5.93
2023-02-16T23:50:44.249Z,5.78
2023-02-16T23:56:14.256Z,6.47
2023-02-16T23:58:54.313Z,6.00
